createdAt,value
2019-02-02T00:03:08.669Z,3.29
2019-02-02T00:08:14.282Z,3.30
2019-02-02T00:13:21.099Z,3.25
2019-02-02T00:18:27.062Z,3.42
2019-02-02T00:23:32.629Z,3.28
2019-02-02T00:28:38.230Z,3.23
2019-02-02T00:33:45.842Z,3.22
2019-02-02T00:38:51.652Z,3.31
2019-02-02T00:43:57.639Z,3.21
2019-02-02T00:49:03.335Z,3.22
2019-02-02T00:54:08.942Z,3.23
2019-02-02T00:59:14.836Z,3.14
2019-02-02T01:04:20.403Z,3.14
2019-02-02T01:09:26.583Z,3.12
2019-02-02T01:14:33.233Z,3.12
2019-02-02T01:19:39.119Z,3.08
2019-02-02T01:24:45.298Z,3.20
2019-02-02T01:29:50.883Z,3.32
2019-02-02T01:34:56.472Z,3.29
2019-02-02T01:40:02.224Z,3.26
2019-02-02T01:45:11.804Z,3.10
2019-02-02T01:50:19.277Z,3.24
2019-02-02T01:55:25.305Z,3.28
2019-02-02T02:00:32.331Z,3.27
2019-02-02T02:05:37.978Z,3.33
2019-02-02T02:10:43.644Z,3.39
2019-02-02T02:15:49.691Z,3.26
2019-02-02T02:20:55.443Z,3.26
2019-02-02T02:26:04.770Z,3.33
2019-02-02T02:31:10.393Z,3.24
2019-02-02T02:36:17.585Z,3.43
2019-02-02T02:41:23.181Z,3.43
2019-02-02T02:46:28.821Z,3.32
2019-02-02T02:51:34.955Z,3.48
2019-02-02T02:56:40.575Z,3.35
2019-02-02T03:01:46.257Z,3.36
2019-02-02T03:06:51.845Z,3.47
2019-02-02T03:11:57.537Z,3.33
2019-02-02T03:17:04.638Z,3.51
2019-02-02T03:22:10.282Z,3.44
2019-02-02T03:27:15.954Z,3.41
2019-02-02T03:32:21.544Z,3.44
2019-02-02T03:37:27.216Z,3.54
2019-02-02T03:42:33.024Z,3.31
2019-02-02T03:47:38.739Z,3.33
2019-02-02T03:52:44.475Z,3.30
2019-02-02T03:57:50.601Z,3.40
2019-02-02T04:02:56.880Z,3.55
2019-02-02T04:08:04.014Z,3.35
2019-02-02T04:13:10.451Z,3.44
2019-02-02T04:18:17.057Z,3.42
2019-02-02T04:23:23.126Z,3.43
2019-02-02T04:28:28.711Z,3.12
2019-02-02T04:33:34.297Z,3.35
2019-02-02T04:38:43.882Z,3.32
2019-02-02T04:43:49.874Z,3.39
2019-02-02T04:48:55.444Z,3.32
2019-02-02T04:54:01.421Z,3.45
2019-02-02T04:59:07.045Z,3.24
2019-02-02T05:04:12.646Z,3.47
2019-02-02T05:09:18.153Z,3.09
2019-02-02T05:14:23.786Z,3.35
2019-02-02T05:19:29.562Z,3.21
2019-02-02T05:24:35.202Z,3.32
2019-02-02T05:29:41.836Z,3.45
2019-02-02T05:34:47.531Z,3.50
2019-02-02T05:39:53.147Z,3.50
2019-02-02T05:44:59.133Z,3.43
2019-02-02T05:50:05.432Z,3.43
2019-02-02T05:55:13.988Z,3.36
2019-02-02T06:00:28.279Z,3.38
2019-02-02T06:05:33.906Z,3.13
2019-02-02T06:10:39.464Z,3.17
2019-02-02T06:15:45.873Z,3.38
2019-02-02T06:20:51.745Z,3.35
2019-02-02T06:25:57.638Z,3.50
2019-02-02T06:31:06.195Z,3.29
2019-02-02T06:36:13.135Z,3.33
2019-02-02T06:41:19.312Z,3.13
2019-02-02T06:46:25.406Z,3.40
2019-02-02T06:51:30.997Z,3.32
2019-02-02T06:56:36.611Z,3.21
2019-02-02T07:01:42.206Z,3.00
2019-02-02T07:06:48.110Z,3.20
2019-02-02T07:11:53.724Z,3.35
2019-02-02T07:16:59.311Z,3.34
2019-02-02T07:22:08.409Z,3.33
2019-02-02T07:27:14.084Z,2.88
2019-02-02T07:32:19.762Z,3.25
2019-02-02T07:37:25.414Z,3.30
2019-02-02T07:42:31.019Z,3.61
2019-02-02T07:47:36.587Z,3.51
2019-02-02T07:52:43.224Z,3.51
2019-02-02T07:57:48.899Z,3.60
2019-02-02T08:02:55.059Z,3.47
2019-02-02T08:08:00.699Z,3.63
2019-02-02T08:13:07.399Z,3.63
2019-02-02T08:18:12.998Z,3.73
2019-02-02T08:23:18.900Z,3.67
2019-02-02T08:28:27.585Z,3.88
2019-02-02T08:33:33.544Z,3.94
2019-02-02T08:38:39.587Z,3.97
2019-02-02T08:43:45.221Z,3.67
2019-02-02T08:48:51.014Z,3.67
2019-02-02T08:53:58.892Z,3.71
2019-02-02T08:59:07.884Z,3.92
2019-02-02T09:04:13.793Z,3.92
2019-02-02T09:09:19.618Z,3.96
2019-02-02T09:14:25.314Z,4.11
2019-02-02T09:19:31.054Z,3.96
2019-02-02T09:24:37.111Z,3.85
2019-02-02T09:29:42.792Z,3.88
2019-02-02T09:34:49.274Z,4.03
2019-02-02T09:39:55.125Z,4.07
2019-02-02T09:45:01.650Z,3.90
2019-02-02T09:50:09.631Z,4.12
2019-02-02T09:55:17.159Z,3.03
2019-02-02T10:00:25.117Z,2.85
2019-02-02T10:05:31.728Z,3.24
2019-02-02T10:10:37.333Z,3.08
2019-02-02T10:15:43.096Z,3.33
2019-02-02T10:20:48.814Z,3.52
2019-02-02T10:25:56.044Z,3.62
2019-02-02T10:31:01.830Z,3.95
2019-02-02T10:36:09.541Z,3.46
2019-02-02T10:41:15.839Z,3.41
2019-02-02T10:46:21.517Z,3.55
2019-02-02T10:51:27.209Z,3.84
2019-02-02T10:56:32.885Z,4.12
2019-02-02T11:01:50.430Z,3.34
2019-02-02T11:06:47.047Z,3.99
2019-02-02T11:11:52.861Z,4.00
2019-02-02T11:16:59.532Z,4.28
2019-02-02T11:22:05.589Z,4.29
2019-02-02T11:27:12.684Z,4.27
2019-02-02T11:32:18.390Z,4.55
2019-02-02T11:37:24.124Z,4.34
2019-02-02T11:42:31.275Z,4.24
2019-02-02T11:47:39.187Z,4.16
2019-02-02T11:52:44.942Z,4.24
2019-02-02T11:57:50.989Z,4.30
2019-02-02T12:02:57.287Z,4.09
2019-02-02T12:08:04.090Z,4.04
2019-02-02T12:13:11.511Z,4.14
2019-02-02T12:18:17.328Z,4.13
2019-02-02T12:23:23.619Z,4.01
2019-02-02T12:28:29.886Z,4.07
2019-02-02T12:33:36.023Z,4.21
2019-02-02T12:38:42.828Z,3.88
2019-02-02T12:43:48.627Z,3.80
2019-02-02T12:48:55.795Z,3.91
2019-02-02T12:54:01.712Z,4.10
2019-02-02T12:59:07.753Z,3.81
2019-02-02T13:04:16.379Z,3.79
2019-02-02T13:09:22.278Z,3.71
2019-02-02T13:14:27.986Z,3.69
2019-02-02T13:19:35.202Z,3.67
2019-02-02T13:24:41.742Z,3.78
2019-02-02T13:29:48.077Z,3.73
2019-02-02T13:34:56.829Z,3.90
2019-02-02T13:40:03.754Z,4.04
2019-02-02T13:45:10.723Z,3.99
2019-02-02T13:50:17.908Z,4.16
2019-02-02T13:55:23.764Z,4.07
2019-02-02T14:00:31.113Z,4.25
2019-02-02T14:05:37.150Z,4.00
2019-02-02T14:10:43.316Z,4.38
2019-02-02T14:15:55.182Z,4.41
2019-02-02T14:21:13.215Z,4.39
2019-02-02T14:26:20.980Z,3.97
2019-02-02T14:31:27.477Z,4.14
2019-02-02T14:36:33.278Z,4.03
2019-02-02T14:41:39.539Z,4.03
2019-02-02T14:46:46.859Z,4.08
2019-02-02T14:51:53.200Z,4.02
2019-02-02T14:56:59.936Z,4.12
2019-02-02T15:02:07.276Z,4.22
2019-02-02T15:07:19.523Z,4.07
2019-02-02T15:12:26.372Z,4.10
2019-02-02T15:17:32.539Z,4.11
2019-02-02T15:22:45.038Z,3.65
2019-02-02T15:27:51.085Z,4.18
2019-02-02T15:32:57.388Z,3.90
2019-02-02T15:38:03.248Z,3.90
2019-02-02T15:43:09.405Z,4.07
2019-02-02T15:48:16.555Z,4.23
2019-02-02T15:53:22.326Z,4.23
2019-02-02T15:58:28.465Z,4.13
2019-02-02T16:03:34.290Z,3.92
2019-02-02T16:08:41.002Z,3.92
2019-02-02T16:13:46.909Z,3.72
2019-02-02T16:18:53.072Z,3.92
2019-02-02T16:23:58.935Z,4.00
2019-02-02T16:29:06.601Z,4.07
2019-02-02T16:34:12.595Z,4.08
2019-02-02T16:39:19.408Z,4.22
2019-02-02T16:44:26.332Z,4.25
2019-02-02T16:49:32.140Z,4.14
2019-02-02T16:54:37.893Z,3.91
2019-02-02T16:59:43.719Z,3.91
2019-02-02T17:04:49.980Z,4.15
2019-02-02T17:09:56.868Z,3.99
2019-02-02T17:15:02.746Z,3.99
2019-02-02T17:20:12.479Z,4.13
2019-02-02T17:25:22.692Z,3.99
2019-02-02T17:30:30.684Z,3.99
2019-02-02T17:35:38.873Z,3.98
2019-02-02T17:40:44.956Z,3.98
2019-02-02T17:45:51.436Z,4.07
2019-02-02T17:50:57.448Z,4.13
2019-02-02T17:56:04.549Z,3.98
2019-02-02T18:01:15.754Z,3.98
2019-02-02T18:06:24.140Z,3.43
2019-02-02T18:11:33.798Z,3.59
2019-02-02T18:16:43.086Z,4.06
2019-02-02T18:21:50.790Z,4.06
2019-02-02T18:26:56.782Z,4.09
2019-02-02T18:32:12.731Z,4.09
2019-02-02T18:37:13.448Z,4.00
2019-02-02T18:42:21.707Z,4.08
2019-02-02T18:47:32.328Z,4.25
2019-02-02T18:52:41.393Z,4.09
2019-02-02T18:57:51.214Z,3.87
2019-02-02T19:03:00.128Z,3.87
2019-02-02T19:08:11.012Z,3.82
2019-02-02T19:13:19.658Z,3.86
2019-02-02T19:18:26.495Z,3.79
2019-02-02T19:23:34.712Z,3.94
2019-02-02T19:28:41.797Z,3.78
2019-02-02T19:33:49.032Z,3.92
2019-02-02T19:38:58.463Z,3.28
2019-02-02T19:44:04.553Z,3.49
2019-02-02T19:49:11.044Z,3.82
2019-02-02T19:54:19.005Z,3.82
2019-02-02T19:59:27.692Z,3.82
2019-02-02T20:04:35.920Z,3.88
2019-02-02T20:09:51.621Z,3.84
2019-02-02T20:15:00.996Z,3.91
2019-02-02T20:20:13.805Z,3.91
2019-02-02T20:25:25.055Z,3.83
2019-02-02T20:30:34.063Z,3.88
2019-02-02T20:35:42.418Z,3.87
2019-02-02T20:40:54.188Z,3.87
2019-02-02T20:46:01.167Z,3.86
2019-02-02T20:51:29.517Z,3.73
2019-02-02T20:56:35.999Z,3.89
2019-02-02T21:08:18.592Z,3.77
2019-02-02T21:13:28.223Z,3.85
2019-02-02T21:18:37.310Z,3.56
2019-02-02T21:23:43.299Z,3.56
2019-02-02T21:28:50.877Z,3.63
2019-02-02T21:33:59.801Z,2.88
2019-02-02T21:39:08.815Z,2.20
2019-02-02T21:44:20.440Z,2.41
2019-02-02T21:49:26.947Z,2.77
2019-02-02T21:54:32.824Z,2.33
2019-02-02T21:59:39.060Z,2.18
2019-02-02T22:04:46.008Z,2.57
2019-02-02T22:09:54.179Z,2.75
2019-02-02T22:15:02.721Z,2.99
2019-02-02T22:20:10.435Z,3.20
2019-02-02T22:25:22.298Z,2.32
2019-02-02T22:30:33.426Z,2.79
2019-02-02T22:35:39.623Z,2.82
2019-02-02T22:40:45.976Z,2.95
2019-02-02T22:45:52.845Z,2.96
2019-02-02T22:50:59.134Z,2.90
2019-02-02T22:56:06.725Z,2.90
2019-02-02T23:01:37.885Z,2.99
2019-02-02T23:07:22.500Z,3.09
2019-02-02T23:12:40.835Z,2.80
2019-02-02T23:17:47.034Z,2.97
2019-02-02T23:22:56.125Z,2.93
2019-02-02T23:28:02.061Z,2.85
2019-02-02T23:33:08.144Z,2.79
2019-02-02T23:38:14.284Z,2.76
2019-02-02T23:43:21.362Z,2.28
2019-02-02T23:53:50.389Z,1.70
2019-02-02T23:58:56.058Z,1.91
